sensor_id;sensor_type;location;lat;lon;timestamp;temperature;humidity
14687;DHT22;7431;49.440;11.084;2023-02-20T00:00:39;19.30;99.90
14687;DHT22;7431;49.440;11.084;2023-02-20T00:03:06;19.30;99.90
14687;DHT22;7431;49.440;11.084;2023-02-20T00:05:31;19.20;99.90
14687;DHT22;7431;49.440;11.084;2023-02-20T00:07:57;19.30;99.90
14687;DHT22;7431;49.440;11.084;2023-02-20T00:10:23;19.20;99.90
14687;DHT22;7431;49.440;11.084;2023-02-20T00:12:49;19.20;99.90
14687;DHT22;7431;49.440;11.084;2023-02-20T00:15:16;19.20;99.90
14687;DHT22;7431;49.440;11.084;2023-02-20T00:17:44;19.20;99.90
14687;DHT22;7431;49.440;11.084;2023-02-20T00:20:14;19.20;99.90
14687;DHT22;7431;49.440;11.084;2023-02-20T00:22:40;19.20;99.90
14687;DHT22;7431;49.440;11.084;2023-02-20T00:25:05;19.20;99.90
14687;DHT22;7431;49.440;11.084;2023-02-20T00:27:31;19.10;99.90
14687;DHT22;7431;49.440;11.084;2023-02-20T00:29:57;19.10;99.90
14687;DHT22;7431;49.440;11.084;2023-02-20T00:32:22;19.10;99.90
14687;DHT22;7431;49.440;11.084;2023-02-20T00:34:48;19.10;99.90
14687;DHT22;7431;49.440;11.084;2023-02-20T00:37:13;19.10;99.90
14687;DHT22;7431;49.440;11.084;2023-02-20T00:39:39;19.10;99.90
14687;DHT22;7431;49.440;11.084;2023-02-20T00:42:05;19.10;99.90
14687;DHT22;7431;49.440;11.084;2023-02-20T00:44:30;19.10;99.90
14687;DHT22;7431;49.440;11.084;2023-02-20T00:46:56;19.00;99.90
14687;DHT22;7431;49.440;11.084;2023-02-20T00:49:21;19.00;99.90
14687;DHT22;7431;49.440;11.084;2023-02-20T00:51:47;19.00;99.90
14687;DHT22;7431;49.440;11.084;2023-02-20T00:54:13;19.00;99.90
14687;DHT22;7431;49.440;11.084;2023-02-20T00:56:39;19.00;99.90
14687;DHT22;7431;49.440;11.084;2023-02-20T00:59:05;19.00;99.90
14687;DHT22;7431;49.440;11.084;2023-02-20T01:01:31;19.00;99.90
14687;DHT22;7431;49.440;11.084;2023-02-20T01:03:56;19.00;99.90
14687;DHT22;7431;49.440;11.084;2023-02-20T01:06:22;19.00;99.90
14687;DHT22;7431;49.440;11.084;2023-02-20T01:08:47;19.00;99.90
14687;DHT22;7431;49.440;11.084;2023-02-20T01:11:13;18.80;99.90
14687;DHT22;7431;49.440;11.084;2023-02-20T01:13:38;18.90;99.90
14687;DHT22;7431;49.440;11.084;2023-02-20T01:16:05;19.00;99.90
14687;DHT22;7431;49.440;11.084;2023-02-20T01:18:31;18.90;99.90
14687;DHT22;7431;49.440;11.084;2023-02-20T01:20:56;18.90;99.90
14687;DHT22;7431;49.440;11.084;2023-02-20T01:23:22;18.90;99.90
14687;DHT22;7431;49.440;11.084;2023-02-20T01:25:47;18.90;99.90
14687;DHT22;7431;49.440;11.084;2023-02-20T01:28:13;18.90;99.90
14687;DHT22;7431;49.440;11.084;2023-02-20T01:30:38;18.90;99.90
14687;DHT22;7431;49.440;11.084;2023-02-20T01:33:04;18.90;99.90
14687;DHT22;7431;49.440;11.084;2023-02-20T01:35:30;18.90;99.90
14687;DHT22;7431;49.440;11.084;2023-02-20T01:37:57;18.80;99.90
14687;DHT22;7431;49.440;11.084;2023-02-20T01:40:24;18.80;99.90
14687;DHT22;7431;49.440;11.084;2023-02-20T01:42:50;18.80;99.90
14687;DHT22;7431;49.440;11.084;2023-02-20T01:47:49;18.80;99.90
14687;DHT22;7431;49.440;11.084;2023-02-20T01:50:17;18.80;99.90
14687;DHT22;7431;49.440;11.084;2023-02-20T01:52:46;18.90;99.90
14687;DHT22;7431;49.440;11.084;2023-02-20T01:55:20;18.80;99.90
14687;DHT22;7431;49.440;11.084;2023-02-20T01:57:54;18.80;99.90
14687;DHT22;7431;49.440;11.084;2023-02-20T02:00:21;18.80;99.90
14687;DHT22;7431;49.440;11.084;2023-02-20T02:03:13;18.80;99.90
14687;DHT22;7431;49.440;11.084;2023-02-20T02:05:43;18.80;99.90
14687;DHT22;7431;49.440;11.084;2023-02-20T02:08:10;18.70;99.90
14687;DHT22;7431;49.440;11.084;2023-02-20T02:11:03;18.80;99.90
14687;DHT22;7431;49.440;11.084;2023-02-20T02:13:30;18.70;99.90
14687;DHT22;7431;49.440;11.084;2023-02-20T02:19:17;18.70;99.90
14687;DHT22;7431;49.440;11.084;2023-02-20T02:24:50;18.70;99.90
14687;DHT22;7431;49.440;11.084;2023-02-20T02:33:33;18.60;99.90
14687;DHT22;7431;49.440;11.084;2023-02-20T02:41:55;18.60;99.90
14687;DHT22;7431;49.440;11.084;2023-02-20T02:44:41;18.60;99.90
14687;DHT22;7431;49.440;11.084;2023-02-20T02:47:17;18.60;99.90
14687;DHT22;7431;49.440;11.084;2023-02-20T02:49:55;18.60;99.90
14687;DHT22;7431;49.440;11.084;2023-02-20T02:52:23;18.50;99.90
14687;DHT22;7431;49.440;11.084;2023-02-20T02:55:08;18.70;99.90
14687;DHT22;7431;49.440;11.084;2023-02-20T02:57:34;18.60;99.90
14687;DHT22;7431;49.440;11.084;2023-02-20T03:00:07;18.60;99.90
14687;DHT22;7431;49.440;11.084;2023-02-20T03:05:24;18.50;99.90
14687;DHT22;7431;49.440;11.084;2023-02-20T03:07:54;18.50;99.90
14687;DHT22;7431;49.440;11.084;2023-02-20T03:10:23;18.50;99.90
14687;DHT22;7431;49.440;11.084;2023-02-20T03:12:58;18.50;99.90
14687;DHT22;7431;49.440;11.084;2023-02-20T03:15:35;18.50;99.90
14687;DHT22;7431;49.440;11.084;2023-02-20T03:20:45;18.50;99.90
14687;DHT22;7431;49.440;11.084;2023-02-20T03:23:27;18.50;99.90
14687;DHT22;7431;49.440;11.084;2023-02-20T03:26:09;18.50;99.90
14687;DHT22;7431;49.440;11.084;2023-02-20T03:28:57;18.40;99.90
14687;DHT22;7431;49.440;11.084;2023-02-20T03:31:28;18.40;99.90
14687;DHT22;7431;49.440;11.084;2023-02-20T03:36:32;18.50;99.90
14687;DHT22;7431;49.440;11.084;2023-02-20T03:39:20;18.50;99.90
14687;DHT22;7431;49.440;11.084;2023-02-20T03:42:07;18.50;99.90
14687;DHT22;7431;49.440;11.084;2023-02-20T03:44:53;18.50;99.90
14687;DHT22;7431;49.440;11.084;2023-02-20T03:47:21;18.40;99.90
14687;DHT22;7431;49.440;11.084;2023-02-20T03:49:49;18.40;99.90
14687;DHT22;7431;49.440;11.084;2023-02-20T03:52:15;18.40;99.90
14687;DHT22;7431;49.440;11.084;2023-02-20T03:54:42;18.40;99.90
14687;DHT22;7431;49.440;11.084;2023-02-20T03:57:17;18.40;99.90
14687;DHT22;7431;49.440;11.084;2023-02-20T03:59:45;18.40;99.90
14687;DHT22;7431;49.440;11.084;2023-02-20T04:02:36;18.40;99.90
14687;DHT22;7431;49.440;11.084;2023-02-20T04:05:28;18.40;99.90
14687;DHT22;7431;49.440;11.084;2023-02-20T04:08:06;18.40;99.90
14687;DHT22;7431;49.440;11.084;2023-02-20T04:10:39;18.40;99.90
14687;DHT22;7431;49.440;11.084;2023-02-20T04:13:07;18.40;99.90
14687;DHT22;7431;49.440;11.084;2023-02-20T04:15:33;18.40;99.90
14687;DHT22;7431;49.440;11.084;2023-02-20T04:18:04;18.40;99.90
14687;DHT22;7431;49.440;11.084;2023-02-20T04:20:32;18.40;99.90
14687;DHT22;7431;49.440;11.084;2023-02-20T04:23:03;18.30;99.90
14687;DHT22;7431;49.440;11.084;2023-02-20T04:25:52;18.30;99.90
14687;DHT22;7431;49.440;11.084;2023-02-20T04:28:20;18.40;99.90
14687;DHT22;7431;49.440;11.084;2023-02-20T04:30:46;18.40;99.90
14687;DHT22;7431;49.440;11.084;2023-02-20T04:33:14;18.30;99.90
14687;DHT22;7431;49.440;11.084;2023-02-20T04:35:40;18.30;99.90
14687;DHT22;7431;49.440;11.084;2023-02-20T04:38:07;18.40;99.90
14687;DHT22;7431;49.440;11.084;2023-02-20T04:40:35;18.30;99.90
14687;DHT22;7431;49.440;11.084;2023-02-20T04:43:01;18.40;99.90
14687;DHT22;7431;49.440;11.084;2023-02-20T04:45:27;18.30;99.90
14687;DHT22;7431;49.440;11.084;2023-02-20T04:47:53;18.30;99.90
14687;DHT22;7431;49.440;11.084;2023-02-20T04:50:25;18.30;99.90
14687;DHT22;7431;49.440;11.084;2023-02-20T04:52:51;18.30;99.90
14687;DHT22;7431;49.440;11.084;2023-02-20T04:55:17;18.30;99.90
14687;DHT22;7431;49.440;11.084;2023-02-20T04:57:45;18.30;99.90
14687;DHT22;7431;49.440;11.084;2023-02-20T05:00:11;18.30;99.90
14687;DHT22;7431;49.440;11.084;2023-02-20T05:02:38;18.30;99.90
14687;DHT22;7431;49.440;11.084;2023-02-20T05:05:05;18.30;99.90
14687;DHT22;7431;49.440;11.084;2023-02-20T05:07:32;18.30;99.90
14687;DHT22;7431;49.440;11.084;2023-02-20T05:09:58;18.30;99.90
14687;DHT22;7431;49.440;11.084;2023-02-20T05:12:23;18.30;99.90
14687;DHT22;7431;49.440;11.084;2023-02-20T05:14:49;18.20;99.90
14687;DHT22;7431;49.440;11.084;2023-02-20T05:17:14;18.20;99.90
14687;DHT22;7431;49.440;11.084;2023-02-20T05:19:40;18.20;99.90
14687;DHT22;7431;49.440;11.084;2023-02-20T05:22:10;18.20;99.90
14687;DHT22;7431;49.440;11.084;2023-02-20T05:24:47;18.20;99.90
14687;DHT22;7431;49.440;11.084;2023-02-20T05:27:15;18.20;99.90
14687;DHT22;7431;49.440;11.084;2023-02-20T05:29:48;18.20;99.90
14687;DHT22;7431;49.440;11.084;2023-02-20T05:32:15;18.20;99.90
14687;DHT22;7431;49.440;11.084;2023-02-20T05:34:42;18.20;99.90
14687;DHT22;7431;49.440;11.084;2023-02-20T05:37:08;18.20;99.90
14687;DHT22;7431;49.440;11.084;2023-02-20T05:39:33;18.20;99.90
14687;DHT22;7431;49.440;11.084;2023-02-20T05:41:59;18.20;99.90
14687;DHT22;7431;49.440;11.084;2023-02-20T05:44:24;18.10;99.90
14687;DHT22;7431;49.440;11.084;2023-02-20T05:46:50;18.20;99.90
14687;DHT22;7431;49.440;11.084;2023-02-20T05:49:16;18.20;99.90
14687;DHT22;7431;49.440;11.084;2023-02-20T05:51:42;18.10;99.90
14687;DHT22;7431;49.440;11.084;2023-02-20T05:54:08;18.20;99.90
14687;DHT22;7431;49.440;11.084;2023-02-20T05:56:33;18.10;99.90
14687;DHT22;7431;49.440;11.084;2023-02-20T05:59:00;18.20;99.90
14687;DHT22;7431;49.440;11.084;2023-02-20T06:01:28;18.10;99.90
14687;DHT22;7431;49.440;11.084;2023-02-20T06:03:53;18.20;99.90
14687;DHT22;7431;49.440;11.084;2023-02-20T06:06:20;18.10;99.90
14687;DHT22;7431;49.440;11.084;2023-02-20T06:08:46;18.10;99.90
14687;DHT22;7431;49.440;11.084;2023-02-20T06:11:13;18.10;99.90
14687;DHT22;7431;49.440;11.084;2023-02-20T06:13:41;18.10;99.90
14687;DHT22;7431;49.440;11.084;2023-02-20T06:16:07;18.10;99.90
14687;DHT22;7431;49.440;11.084;2023-02-20T06:18:33;18.10;99.90
14687;DHT22;7431;49.440;11.084;2023-02-20T06:21:02;18.10;99.90
14687;DHT22;7431;49.440;11.084;2023-02-20T06:23:27;18.10;99.90
14687;DHT22;7431;49.440;11.084;2023-02-20T06:25:53;18.10;99.90
14687;DHT22;7431;49.440;11.084;2023-02-20T06:28:18;18.10;99.90
14687;DHT22;7431;49.440;11.084;2023-02-20T06:30:46;18.10;99.90
14687;DHT22;7431;49.440;11.084;2023-02-20T06:33:11;18.10;99.90
14687;DHT22;7431;49.440;11.084;2023-02-20T06:35:37;18.00;99.90
14687;DHT22;7431;49.440;11.084;2023-02-20T07:07:16;18.10;99.90
14687;DHT22;7431;49.440;11.084;2023-02-20T07:09:41;18.10;99.90
14687;DHT22;7431;49.440;11.084;2023-02-20T07:12:07;18.10;99.90
14687;DHT22;7431;49.440;11.084;2023-02-20T07:14:32;18.10;99.90
14687;DHT22;7431;49.440;11.084;2023-02-20T07:16:58;18.10;99.90
14687;DHT22;7431;49.440;11.084;2023-02-20T07:19:23;18.10;99.90
14687;DHT22;7431;49.440;11.084;2023-02-20T07:21:49;18.10;99.90
14687;DHT22;7431;49.440;11.084;2023-02-20T07:24:15;18.10;99.90
14687;DHT22;7431;49.440;11.084;2023-02-20T07:26:41;18.10;99.90
14687;DHT22;7431;49.440;11.084;2023-02-20T07:29:07;18.10;99.90
14687;DHT22;7431;49.440;11.084;2023-02-20T07:31:33;18.10;99.90
14687;DHT22;7431;49.440;11.084;2023-02-20T07:33:58;18.10;99.90
14687;DHT22;7431;49.440;11.084;2023-02-20T07:36:24;18.10;99.90
14687;DHT22;7431;49.440;11.084;2023-02-20T07:38:58;18.20;99.90
14687;DHT22;7431;49.440;11.084;2023-02-20T07:41:25;18.10;99.90
14687;DHT22;7431;49.440;11.084;2023-02-20T07:43:54;18.20;99.90
14687;DHT22;7431;49.440;11.084;2023-02-20T07:46:20;18.20;99.90
14687;DHT22;7431;49.440;11.084;2023-02-20T07:48:45;18.30;99.90
14687;DHT22;7431;49.440;11.084;2023-02-20T07:51:11;18.30;99.90
14687;DHT22;7431;49.440;11.084;2023-02-20T07:53:36;18.30;99.90
14687;DHT22;7431;49.440;11.084;2023-02-20T07:56:03;18.40;99.90
14687;DHT22;7431;49.440;11.084;2023-02-20T07:58:29;18.40;99.90
14687;DHT22;7431;49.440;11.084;2023-02-20T08:00:55;18.40;99.90
14687;DHT22;7431;49.440;11.084;2023-02-20T08:03:20;18.40;99.90
14687;DHT22;7431;49.440;11.084;2023-02-20T08:05:46;18.40;99.90
14687;DHT22;7431;49.440;11.084;2023-02-20T08:08:11;18.50;99.90
14687;DHT22;7431;49.440;11.084;2023-02-20T08:10:37;18.50;99.90
14687;DHT22;7431;49.440;11.084;2023-02-20T08:13:03;18.50;99.90
14687;DHT22;7431;49.440;11.084;2023-02-20T08:15:29;18.60;99.90
14687;DHT22;7431;49.440;11.084;2023-02-20T08:17:55;18.60;99.90
14687;DHT22;7431;49.440;11.084;2023-02-20T08:20:21;18.60;99.90
14687;DHT22;7431;49.440;11.084;2023-02-20T08:22:48;18.60;99.90
14687;DHT22;7431;49.440;11.084;2023-02-20T08:25:15;18.50;99.90
14687;DHT22;7431;49.440;11.084;2023-02-20T08:27:46;18.60;99.90
14687;DHT22;7431;49.440;11.084;2023-02-20T08:30:15;18.50;99.90
14687;DHT22;7431;49.440;11.084;2023-02-20T08:32:41;18.50;99.90
14687;DHT22;7431;49.440;11.084;2023-02-20T08:35:07;18.50;99.90
14687;DHT22;7431;49.440;11.084;2023-02-20T08:37:32;18.50;99.90
14687;DHT22;7431;49.440;11.084;2023-02-20T08:39:58;18.40;99.90
14687;DHT22;7431;49.440;11.084;2023-02-20T08:42:23;18.40;99.90
14687;DHT22;7431;49.440;11.084;2023-02-20T08:44:49;18.40;99.90
14687;DHT22;7431;49.440;11.084;2023-02-20T08:47:18;18.30;99.90
14687;DHT22;7431;49.440;11.084;2023-02-20T08:49:46;18.40;99.90
14687;DHT22;7431;49.440;11.084;2023-02-20T08:52:12;18.40;99.90
14687;DHT22;7431;49.440;11.084;2023-02-20T08:54:37;18.40;99.90
14687;DHT22;7431;49.440;11.084;2023-02-20T08:57:03;18.40;99.90
14687;DHT22;7431;49.440;11.084;2023-02-20T08:59:31;18.40;99.90
14687;DHT22;7431;49.440;11.084;2023-02-20T09:01:56;18.40;99.90
14687;DHT22;7431;49.440;11.084;2023-02-20T09:04:22;18.40;99.90
14687;DHT22;7431;49.440;11.084;2023-02-20T09:06:48;18.40;99.90
14687;DHT22;7431;49.440;11.084;2023-02-20T09:09:14;18.40;99.90
14687;DHT22;7431;49.440;11.084;2023-02-20T09:11:39;18.40;99.90
14687;DHT22;7431;49.440;11.084;2023-02-20T09:14:07;18.30;99.90
14687;DHT22;7431;49.440;11.084;2023-02-20T09:16:33;18.40;99.90
14687;DHT22;7431;49.440;11.084;2023-02-20T09:18:59;18.50;99.90
14687;DHT22;7431;49.440;11.084;2023-02-20T09:21:25;18.50;99.90
14687;DHT22;7431;49.440;11.084;2023-02-20T09:23:52;18.40;99.90
14687;DHT22;7431;49.440;11.084;2023-02-20T09:26:18;18.40;99.90
14687;DHT22;7431;49.440;11.084;2023-02-20T09:28:44;18.40;99.90
14687;DHT22;7431;49.440;11.084;2023-02-20T09:31:09;18.40;99.90
14687;DHT22;7431;49.440;11.084;2023-02-20T09:33:35;18.40;99.90
14687;DHT22;7431;49.440;11.084;2023-02-20T09:36:01;18.40;99.90
14687;DHT22;7431;49.440;11.084;2023-02-20T09:38:26;18.40;99.90
14687;DHT22;7431;49.440;11.084;2023-02-20T09:40:57;18.40;99.90
14687;DHT22;7431;49.440;11.084;2023-02-20T09:46:19;18.40;99.90
14687;DHT22;7431;49.440;11.084;2023-02-20T09:51:26;18.40;99.90
14687;DHT22;7431;49.440;11.084;2023-02-20T09:55:00;18.40;99.90
14687;DHT22;7431;49.440;11.084;2023-02-20T09:56:56;18.40;99.90
14687;DHT22;7431;49.440;11.084;2023-02-20T09:59:34;18.40;99.90
14687;DHT22;7431;49.440;11.084;2023-02-20T10:04:41;18.30;99.90
14687;DHT22;7431;49.440;11.084;2023-02-20T10:07:18;18.30;99.90
14687;DHT22;7431;49.440;11.084;2023-02-20T10:09:47;18.30;99.90
14687;DHT22;7431;49.440;11.084;2023-02-20T10:17:50;18.20;99.90
14687;DHT22;7431;49.440;11.084;2023-02-20T10:23:17;18.10;99.90
14687;DHT22;7431;49.440;11.084;2023-02-20T10:25:54;18.10;99.90
14687;DHT22;7431;49.440;11.084;2023-02-20T10:28:21;18.10;99.90
14687;DHT22;7431;49.440;11.084;2023-02-20T10:33:35;18.10;99.90
14687;DHT22;7431;49.440;11.084;2023-02-20T10:39:11;18.10;99.90
14687;DHT22;7431;49.440;11.084;2023-02-20T10:41:48;18.10;99.90
14687;DHT22;7431;49.440;11.084;2023-02-20T10:44:39;18.10;99.90
14687;DHT22;7431;49.440;11.084;2023-02-20T10:47:27;18.10;99.90
14687;DHT22;7431;49.440;11.084;2023-02-20T10:50:04;18.10;99.90
14687;DHT22;7431;49.440;11.084;2023-02-20T10:52:37;18.10;99.90
14687;DHT22;7431;49.440;11.084;2023-02-20T10:55:51;18.10;99.90
14687;DHT22;7431;49.440;11.084;2023-02-20T10:58:21;18.10;99.90
14687;DHT22;7431;49.440;11.084;2023-02-20T11:00:51;18.10;99.90
14687;DHT22;7431;49.440;11.084;2023-02-20T11:03:29;18.10;99.90
14687;DHT22;7431;49.440;11.084;2023-02-20T11:05:58;18.10;99.90
14687;DHT22;7431;49.440;11.084;2023-02-20T11:08:25;18.10;99.90
14687;DHT22;7431;49.440;11.084;2023-02-20T11:10:58;18.10;99.90
14687;DHT22;7431;49.440;11.084;2023-02-20T11:13:24;18.10;99.90
14687;DHT22;7431;49.440;11.084;2023-02-20T11:15:53;18.10;99.90
14687;DHT22;7431;49.440;11.084;2023-02-20T11:18:23;18.10;99.90
14687;DHT22;7431;49.440;11.084;2023-02-20T11:20:54;18.10;99.90
14687;DHT22;7431;49.440;11.084;2023-02-20T11:23:41;18.10;99.90
14687;DHT22;7431;49.440;11.084;2023-02-20T11:29:12;18.10;99.90
14687;DHT22;7431;49.440;11.084;2023-02-20T11:31:41;18.10;99.90
14687;DHT22;7431;49.440;11.084;2023-02-20T11:34:15;18.10;99.90
14687;DHT22;7431;49.440;11.084;2023-02-20T11:36:45;18.10;99.90
14687;DHT22;7431;49.440;11.084;2023-02-20T11:39:30;18.10;99.90
14687;DHT22;7431;49.440;11.084;2023-02-20T11:42:14;18.10;99.90
14687;DHT22;7431;49.440;11.084;2023-02-20T11:44:40;18.10;99.90
14687;DHT22;7431;49.440;11.084;2023-02-20T11:47:17;18.10;99.90
14687;DHT22;7431;49.440;11.084;2023-02-20T11:49:44;18.10;99.90
14687;DHT22;7431;49.440;11.084;2023-02-20T11:52:18;18.10;99.90
14687;DHT22;7431;49.440;11.084;2023-02-20T11:54:45;18.10;99.90
14687;DHT22;7431;49.440;11.084;2023-02-20T11:59:44;18.10;99.90
14687;DHT22;7431;49.440;11.084;2023-02-20T12:08:18;18.10;99.90
14687;DHT22;7431;49.440;11.084;2023-02-20T12:10:42;18.10;99.90
14687;DHT22;7431;49.440;11.084;2023-02-20T12:13:13;18.10;99.90
14687;DHT22;7431;49.440;11.084;2023-02-20T12:15:39;18.10;99.90
14687;DHT22;7431;49.440;11.084;2023-02-20T12:18:21;18.10;99.90
14687;DHT22;7431;49.440;11.084;2023-02-20T12:20:57;18.10;99.90
14687;DHT22;7431;49.440;11.084;2023-02-20T12:23:26;18.10;99.90
14687;DHT22;7431;49.440;11.084;2023-02-20T12:26:24;18.10;99.90
14687;DHT22;7431;49.440;11.084;2023-02-20T12:36:44;18.10;99.90
14687;DHT22;7431;49.440;11.084;2023-02-20T12:39:24;18.10;99.90
14687;DHT22;7431;49.440;11.084;2023-02-20T12:42:12;18.10;99.90
14687;DHT22;7431;49.440;11.084;2023-02-20T12:47:38;18.10;99.90
14687;DHT22;7431;49.440;11.084;2023-02-20T13:01:19;18.10;99.90
14687;DHT22;7431;49.440;11.084;2023-02-20T13:03:59;18.10;99.90
14687;DHT22;7431;49.440;11.084;2023-02-20T13:09:37;18.10;99.90
14687;DHT22;7431;49.440;11.084;2023-02-20T13:12:15;18.10;99.90
14687;DHT22;7431;49.440;11.084;2023-02-20T13:15:15;18.10;99.90
14687;DHT22;7431;49.440;11.084;2023-02-20T13:18:04;18.10;99.90
14687;DHT22;7431;49.440;11.084;2023-02-20T13:20:35;18.10;99.90
14687;DHT22;7431;49.440;11.084;2023-02-20T13:23:25;18.00;99.90
14687;DHT22;7431;49.440;11.084;2023-02-20T13:25:52;18.10;99.90
14687;DHT22;7431;49.440;11.084;2023-02-20T13:28:39;18.10;99.90
14687;DHT22;7431;49.440;11.084;2023-02-20T13:33:35;18.00;99.90
14687;DHT22;7431;49.440;11.084;2023-02-20T13:36:02;18.20;99.90
14687;DHT22;7431;49.440;11.084;2023-02-20T13:38:28;18.00;99.90
14687;DHT22;7431;49.440;11.084;2023-02-20T13:54:13;17.60;99.90
14687;DHT22;7431;49.440;11.084;2023-02-20T13:57:12;18.00;99.90
14687;DHT22;7431;49.440;11.084;2023-02-20T13:59:39;18.00;99.90
14687;DHT22;7431;49.440;11.084;2023-02-20T14:02:15;18.00;99.90
14687;DHT22;7431;49.440;11.084;2023-02-20T14:04:53;18.00;99.90
14687;DHT22;7431;49.440;11.084;2023-02-20T14:13:37;17.90;99.90
14687;DHT22;7431;49.440;11.084;2023-02-20T14:15:51;17.90;99.90
14687;DHT22;7431;49.440;11.084;2023-02-20T14:18:19;17.90;99.90
14687;DHT22;7431;49.440;11.084;2023-02-20T14:20:46;17.90;99.90
14687;DHT22;7431;49.440;11.084;2023-02-20T14:23:24;17.90;99.90
14687;DHT22;7431;49.440;11.084;2023-02-20T14:25:57;17.90;99.90
14687;DHT22;7431;49.440;11.084;2023-02-20T14:28:23;17.90;99.90
14687;DHT22;7431;49.440;11.084;2023-02-20T14:31:12;17.90;99.90
14687;DHT22;7431;49.440;11.084;2023-02-20T14:33:43;17.90;99.90
14687;DHT22;7431;49.440;11.084;2023-02-20T14:40:07;17.90;99.90
14687;DHT22;7431;49.440;11.084;2023-02-20T14:42:36;17.90;99.90
14687;DHT22;7431;49.440;11.084;2023-02-20T14:45:06;17.90;99.90
14687;DHT22;7431;49.440;11.084;2023-02-20T14:47:32;17.80;99.90
14687;DHT22;7431;49.440;11.084;2023-02-20T14:50:26;17.80;99.90
14687;DHT22;7431;49.440;11.084;2023-02-20T14:53:15;17.80;99.90
14687;DHT22;7431;49.440;11.084;2023-02-20T14:55:41;17.80;99.90
14687;DHT22;7431;49.440;11.084;2023-02-20T14:58:12;17.80;99.90
14687;DHT22;7431;49.440;11.084;2023-02-20T15:00:39;17.80;99.90
14687;DHT22;7431;49.440;11.084;2023-02-20T15:03:18;17.80;99.90
14687;DHT22;7431;49.440;11.084;2023-02-20T15:05:45;17.80;99.90
14687;DHT22;7431;49.440;11.084;2023-02-20T15:10:44;17.80;99.90
14687;DHT22;7431;49.440;11.084;2023-02-20T15:13:14;17.80;99.90
14687;DHT22;7431;49.440;11.084;2023-02-20T15:15:44;17.80;99.90
14687;DHT22;7431;49.440;11.084;2023-02-20T15:18:13;17.90;99.90
14687;DHT22;7431;49.440;11.084;2023-02-20T15:20:44;17.80;99.90
14687;DHT22;7431;49.440;11.084;2023-02-20T15:25:48;17.80;99.90
14687;DHT22;7431;49.440;11.084;2023-02-20T15:33:41;17.80;99.90
14687;DHT22;7431;49.440;11.084;2023-02-20T15:36:16;17.80;99.90
14687;DHT22;7431;49.440;11.084;2023-02-20T15:38:42;17.80;99.90
14687;DHT22;7431;49.440;11.084;2023-02-20T15:41:09;17.80;99.90
14687;DHT22;7431;49.440;11.084;2023-02-20T15:43:35;17.80;99.90
14687;DHT22;7431;49.440;11.084;2023-02-20T15:46:00;17.70;99.90
14687;DHT22;7431;49.440;11.084;2023-02-20T15:48:26;17.70;99.90
14687;DHT22;7431;49.440;11.084;2023-02-20T15:50:52;17.70;99.90
14687;DHT22;7431;49.440;11.084;2023-02-20T15:53:24;17.70;99.90
14687;DHT22;7431;49.440;11.084;2023-02-20T15:55:51;17.80;99.90
14687;DHT22;7431;49.440;11.084;2023-02-20T15:58:30;17.80;99.90
14687;DHT22;7431;49.440;11.084;2023-02-20T16:00:56;17.70;99.90
14687;DHT22;7431;49.440;11.084;2023-02-20T16:03:23;17.70;99.90
14687;DHT22;7431;49.440;11.084;2023-02-20T16:05:49;17.80;99.90
14687;DHT22;7431;49.440;11.084;2023-02-20T16:08:15;17.80;99.90
14687;DHT22;7431;49.440;11.084;2023-02-20T16:10:41;17.90;99.90
14687;DHT22;7431;49.440;11.084;2023-02-20T16:15:49;18.00;99.90
14687;DHT22;7431;49.440;11.084;2023-02-20T16:18:15;18.00;99.90
14687;DHT22;7431;49.440;11.084;2023-02-20T16:20:40;18.00;99.90
14687;DHT22;7431;49.440;11.084;2023-02-20T16:23:06;18.20;99.90
14687;DHT22;7431;49.440;11.084;2023-02-20T16:25:33;18.20;99.90
14687;DHT22;7431;49.440;11.084;2023-02-20T16:27:59;18.30;99.90
14687;DHT22;7431;49.440;11.084;2023-02-20T16:35:36;18.50;99.90
14687;DHT22;7431;49.440;11.084;2023-02-20T16:38:02;18.60;99.90
14687;DHT22;7431;49.440;11.084;2023-02-20T16:40:27;18.60;99.90
14687;DHT22;7431;49.440;11.084;2023-02-20T16:42:53;18.80;99.90
14687;DHT22;7431;49.440;11.084;2023-02-20T16:45:19;18.80;99.90
14687;DHT22;7431;49.440;11.084;2023-02-20T16:47:50;18.90;99.90
14687;DHT22;7431;49.440;11.084;2023-02-20T16:50:19;19.00;99.90
14687;DHT22;7431;49.440;11.084;2023-02-20T16:52:49;19.10;99.90
14687;DHT22;7431;49.440;11.084;2023-02-20T16:57:46;19.20;99.90
14687;DHT22;7431;49.440;11.084;2023-02-20T17:00:16;19.20;99.90
14687;DHT22;7431;49.440;11.084;2023-02-20T17:02:42;19.30;99.90
14687;DHT22;7431;49.440;11.084;2023-02-20T17:05:08;19.30;99.90
14687;DHT22;7431;49.440;11.084;2023-02-20T17:07:34;19.30;99.90
14687;DHT22;7431;49.440;11.084;2023-02-20T17:09:59;19.30;99.90
14687;DHT22;7431;49.440;11.084;2023-02-20T17:12:25;19.20;99.90
14687;DHT22;7431;49.440;11.084;2023-02-20T17:14:52;19.20;99.90
14687;DHT22;7431;49.440;11.084;2023-02-20T17:17:18;19.10;99.90
14687;DHT22;7431;49.440;11.084;2023-02-20T17:19:44;19.10;99.90
14687;DHT22;7431;49.440;11.084;2023-02-20T17:22:11;19.00;99.90
14687;DHT22;7431;49.440;11.084;2023-02-20T17:24:41;19.20;99.90
14687;DHT22;7431;49.440;11.084;2023-02-20T17:27:08;18.90;99.90
14687;DHT22;7431;49.440;11.084;2023-02-20T17:29:34;18.90;99.90
14687;DHT22;7431;49.440;11.084;2023-02-20T17:32:00;18.80;99.90
14687;DHT22;7431;49.440;11.084;2023-02-20T17:34:25;18.80;99.90
14687;DHT22;7431;49.440;11.084;2023-02-20T17:36:51;18.80;99.90
14687;DHT22;7431;49.440;11.084;2023-02-20T17:39:19;18.80;99.90
14687;DHT22;7431;49.440;11.084;2023-02-20T17:41:50;18.80;99.90
14687;DHT22;7431;49.440;11.084;2023-02-20T17:44:18;18.90;99.90
14687;DHT22;7431;49.440;11.084;2023-02-20T17:46:44;18.80;99.90
14687;DHT22;7431;49.440;11.084;2023-02-20T17:49:34;18.90;99.90
14687;DHT22;7431;49.440;11.084;2023-02-20T17:51:59;18.80;99.90
14687;DHT22;7431;49.440;11.084;2023-02-20T17:54:32;18.80;99.90
14687;DHT22;7431;49.440;11.084;2023-02-20T17:57:01;18.80;99.90
14687;DHT22;7431;49.440;11.084;2023-02-20T17:59:27;18.90;99.90
14687;DHT22;7431;49.440;11.084;2023-02-20T18:01:53;18.80;99.90
14687;DHT22;7431;49.440;11.084;2023-02-20T18:04:19;18.90;99.90
14687;DHT22;7431;49.440;11.084;2023-02-20T18:06:45;18.90;99.90
14687;DHT22;7431;49.440;11.084;2023-02-20T18:09:15;18.90;99.90
14687;DHT22;7431;49.440;11.084;2023-02-20T18:11:43;18.90;99.90
14687;DHT22;7431;49.440;11.084;2023-02-20T18:14:10;19.00;99.90
14687;DHT22;7431;49.440;11.084;2023-02-20T18:16:36;19.00;99.90
14687;DHT22;7431;49.440;11.084;2023-02-20T18:19:04;19.00;99.90
14687;DHT22;7431;49.440;11.084;2023-02-20T18:21:30;19.00;99.90
14687;DHT22;7431;49.440;11.084;2023-02-20T18:23:56;19.00;99.90
14687;DHT22;7431;49.440;11.084;2023-02-20T18:26:22;19.00;99.90
14687;DHT22;7431;49.440;11.084;2023-02-20T18:28:48;19.00;99.90